sensor_id;sensor_type;location;lat;lon;timestamp;temperature;humidity
36586;DHT22;22591;48.314;11.562;2024-01-30T00:02:16;-0.40;99.90
36586;DHT22;22591;48.314;11.562;2024-01-30T00:04:42;-0.50;99.90
36586;DHT22;22591;48.314;11.562;2024-01-30T00:07:07;-0.50;99.90
36586;DHT22;22591;48.314;11.562;2024-01-30T00:09:33;-0.50;99.90
36586;DHT22;22591;48.314;11.562;2024-01-30T00:11:59;-0.40;99.90
36586;DHT22;22591;48.314;11.562;2024-01-30T00:14:24;-0.40;99.90
36586;DHT22;22591;48.314;11.562;2024-01-30T00:16:51;-0.40;99.90
36586;DHT22;22591;48.314;11.562;2024-01-30T00:19:16;-0.40;99.90
36586;DHT22;22591;48.314;11.562;2024-01-30T00:21:42;-0.40;99.90
36586;DHT22;22591;48.314;11.562;2024-01-30T00:24:08;-0.50;99.90
36586;DHT22;22591;48.314;11.562;2024-01-30T00:26:33;-0.70;99.90
36586;DHT22;22591;48.314;11.562;2024-01-30T00:28:59;-0.70;99.90
36586;DHT22;22591;48.314;11.562;2024-01-30T00:31:24;-0.80;99.90
36586;DHT22;22591;48.314;11.562;2024-01-30T00:33:50;-0.80;99.90
36586;DHT22;22591;48.314;11.562;2024-01-30T00:36:16;-0.90;99.90
36586;DHT22;22591;48.314;11.562;2024-01-30T00:38:41;-1.00;99.90
36586;DHT22;22591;48.314;11.562;2024-01-30T00:41:08;-1.00;99.90
36586;DHT22;22591;48.314;11.562;2024-01-30T00:43:33;-1.10;99.90
36586;DHT22;22591;48.314;11.562;2024-01-30T00:45:59;-1.10;99.90
36586;DHT22;22591;48.314;11.562;2024-01-30T00:48:25;-1.10;99.90
36586;DHT22;22591;48.314;11.562;2024-01-30T00:50:50;-1.00;99.90
36586;DHT22;22591;48.314;11.562;2024-01-30T00:53:16;-0.90;99.90
36586;DHT22;22591;48.314;11.562;2024-01-30T00:55:41;-0.80;99.90
36586;DHT22;22591;48.314;11.562;2024-01-30T00:58:07;-0.80;99.90
36586;DHT22;22591;48.314;11.562;2024-01-30T01:00:33;-0.80;99.90
36586;DHT22;22591;48.314;11.562;2024-01-30T01:02:59;-0.80;99.90
36586;DHT22;22591;48.314;11.562;2024-01-30T01:05:25;-0.70;99.90
36586;DHT22;22591;48.314;11.562;2024-01-30T01:07:50;-0.80;99.90
36586;DHT22;22591;48.314;11.562;2024-01-30T01:10:19;-0.80;99.90
36586;DHT22;22591;48.314;11.562;2024-01-30T01:12:45;-0.90;99.90
36586;DHT22;22591;48.314;11.562;2024-01-30T01:15:11;-1.00;99.90
36586;DHT22;22591;48.314;11.562;2024-01-30T01:17:38;-1.00;99.90
36586;DHT22;22591;48.314;11.562;2024-01-30T01:20:04;-1.10;99.90
36586;DHT22;22591;48.314;11.562;2024-01-30T01:22:31;-1.10;99.90
36586;DHT22;22591;48.314;11.562;2024-01-30T01:24:58;-1.30;99.90
36586;DHT22;22591;48.314;11.562;2024-01-30T01:27:23;-1.30;99.90
36586;DHT22;22591;48.314;11.562;2024-01-30T01:29:49;-1.20;99.90
36586;DHT22;22591;48.314;11.562;2024-01-30T01:32:14;-1.20;99.90
36586;DHT22;22591;48.314;11.562;2024-01-30T01:34:40;-1.20;99.90
36586;DHT22;22591;48.314;11.562;2024-01-30T01:37:06;-1.30;99.90
36586;DHT22;22591;48.314;11.562;2024-01-30T01:39:32;-1.30;99.90
36586;DHT22;22591;48.314;11.562;2024-01-30T01:41:58;-1.40;99.90
36586;DHT22;22591;48.314;11.562;2024-01-30T01:44:23;-1.40;99.90
36586;DHT22;22591;48.314;11.562;2024-01-30T01:46:49;-1.40;99.90
36586;DHT22;22591;48.314;11.562;2024-01-30T01:49:14;-1.40;99.90
36586;DHT22;22591;48.314;11.562;2024-01-30T01:51:41;-1.50;99.90
36586;DHT22;22591;48.314;11.562;2024-01-30T01:54:07;-1.50;99.90
36586;DHT22;22591;48.314;11.562;2024-01-30T01:56:34;-1.40;99.90
36586;DHT22;22591;48.314;11.562;2024-01-30T01:59:04;-1.60;99.90
36586;DHT22;22591;48.314;11.562;2024-01-30T02:01:31;-1.60;99.90
36586;DHT22;22591;48.314;11.562;2024-01-30T02:03:58;-1.60;99.90
36586;DHT22;22591;48.314;11.562;2024-01-30T02:06:24;-1.60;99.90
36586;DHT22;22591;48.314;11.562;2024-01-30T02:08:50;-1.60;99.90
36586;DHT22;22591;48.314;11.562;2024-01-30T02:11:15;-1.70;99.90
36586;DHT22;22591;48.314;11.562;2024-01-30T02:13:42;-1.60;99.90
36586;DHT22;22591;48.314;11.562;2024-01-30T02:16:07;-1.60;99.90
36586;DHT22;22591;48.314;11.562;2024-01-30T02:18:33;-1.50;99.90
36586;DHT22;22591;48.314;11.562;2024-01-30T02:23:30;-1.60;99.90
36586;DHT22;22591;48.314;11.562;2024-01-30T02:25:56;-1.70;99.90
36586;DHT22;22591;48.314;11.562;2024-01-30T02:28:21;-1.70;99.90
36586;DHT22;22591;48.314;11.562;2024-01-30T02:30:47;-1.70;99.90
36586;DHT22;22591;48.314;11.562;2024-01-30T02:33:13;-1.70;99.90
36586;DHT22;22591;48.314;11.562;2024-01-30T02:35:38;-1.70;99.90
36586;DHT22;22591;48.314;11.562;2024-01-30T02:38:04;-1.70;99.90
36586;DHT22;22591;48.314;11.562;2024-01-30T02:40:30;-1.80;99.90
36586;DHT22;22591;48.314;11.562;2024-01-30T02:42:57;-1.90;99.90
36586;DHT22;22591;48.314;11.562;2024-01-30T02:45:23;-1.90;99.90
36586;DHT22;22591;48.314;11.562;2024-01-30T02:47:48;-1.90;99.90
36586;DHT22;22591;48.314;11.562;2024-01-30T02:50:14;-1.90;99.90
36586;DHT22;22591;48.314;11.562;2024-01-30T02:52:40;-2.00;99.90
36586;DHT22;22591;48.314;11.562;2024-01-30T02:55:06;-2.00;99.90
36586;DHT22;22591;48.314;11.562;2024-01-30T02:57:32;-1.90;99.90
36586;DHT22;22591;48.314;11.562;2024-01-30T02:59:57;-1.90;99.90
36586;DHT22;22591;48.314;11.562;2024-01-30T03:02:23;-1.90;99.90
36586;DHT22;22591;48.314;11.562;2024-01-30T03:04:48;-1.90;99.90
36586;DHT22;22591;48.314;11.562;2024-01-30T03:07:14;-1.90;99.90
36586;DHT22;22591;48.314;11.562;2024-01-30T03:09:41;-1.90;99.90
36586;DHT22;22591;48.314;11.562;2024-01-30T03:12:07;-1.80;99.90
36586;DHT22;22591;48.314;11.562;2024-01-30T03:14:33;-1.90;99.90
36586;DHT22;22591;48.314;11.562;2024-01-30T03:16:59;-1.90;99.90
36586;DHT22;22591;48.314;11.562;2024-01-30T03:19:24;-1.90;99.90
36586;DHT22;22591;48.314;11.562;2024-01-30T03:21:50;-1.90;99.90
36586;DHT22;22591;48.314;11.562;2024-01-30T03:24:16;-2.00;99.90
36586;DHT22;22591;48.314;11.562;2024-01-30T03:26:43;-2.10;99.90
36586;DHT22;22591;48.314;11.562;2024-01-30T03:29:09;-2.10;99.90
36586;DHT22;22591;48.314;11.562;2024-01-30T03:31:34;-2.00;99.90
36586;DHT22;22591;48.314;11.562;2024-01-30T03:34:01;-1.90;99.90
36586;DHT22;22591;48.314;11.562;2024-01-30T03:36:27;-2.00;99.90
36586;DHT22;22591;48.314;11.562;2024-01-30T03:38:53;-2.10;99.90
36586;DHT22;22591;48.314;11.562;2024-01-30T03:41:18;-2.20;99.90
36586;DHT22;22591;48.314;11.562;2024-01-30T03:43:44;-2.20;99.90
36586;DHT22;22591;48.314;11.562;2024-01-30T03:46:12;-2.10;99.90
36586;DHT22;22591;48.314;11.562;2024-01-30T03:48:37;-2.10;99.90
36586;DHT22;22591;48.314;11.562;2024-01-30T03:51:03;-2.10;99.90
36586;DHT22;22591;48.314;11.562;2024-01-30T03:53:29;-2.10;99.90
36586;DHT22;22591;48.314;11.562;2024-01-30T03:55:55;-2.00;99.90
36586;DHT22;22591;48.314;11.562;2024-01-30T03:58:20;-2.00;99.90
36586;DHT22;22591;48.314;11.562;2024-01-30T04:00:46;-2.20;99.90
36586;DHT22;22591;48.314;11.562;2024-01-30T04:03:12;-2.20;99.90
36586;DHT22;22591;48.314;11.562;2024-01-30T04:05:37;-2.20;99.90
36586;DHT22;22591;48.314;11.562;2024-01-30T04:08:03;-2.20;99.90
36586;DHT22;22591;48.314;11.562;2024-01-30T04:10:28;-2.20;99.90
36586;DHT22;22591;48.314;11.562;2024-01-30T04:12:54;-2.20;99.90
36586;DHT22;22591;48.314;11.562;2024-01-30T04:15:19;-2.10;99.90
36586;DHT22;22591;48.314;11.562;2024-01-30T04:17:45;-2.10;99.90
36586;DHT22;22591;48.314;11.562;2024-01-30T04:20:17;-2.20;99.90
36586;DHT22;22591;48.314;11.562;2024-01-30T04:22:46;-2.20;99.90
36586;DHT22;22591;48.314;11.562;2024-01-30T04:25:12;-2.20;99.90
36586;DHT22;22591;48.314;11.562;2024-01-30T04:27:38;-2.20;99.90
36586;DHT22;22591;48.314;11.562;2024-01-30T04:30:04;-2.20;99.90
36586;DHT22;22591;48.314;11.562;2024-01-30T04:32:30;-2.20;99.90
36586;DHT22;22591;48.314;11.562;2024-01-30T04:34:55;-2.20;99.90
36586;DHT22;22591;48.314;11.562;2024-01-30T04:37:21;-2.30;99.90
36586;DHT22;22591;48.314;11.562;2024-01-30T04:39:46;-2.20;99.90
36586;DHT22;22591;48.314;11.562;2024-01-30T04:42:12;-2.20;99.90
36586;DHT22;22591;48.314;11.562;2024-01-30T04:44:38;-2.20;99.90
36586;DHT22;22591;48.314;11.562;2024-01-30T04:47:03;-2.20;99.90
36586;DHT22;22591;48.314;11.562;2024-01-30T04:49:31;-2.20;99.90
36586;DHT22;22591;48.314;11.562;2024-01-30T04:51:57;-2.20;99.90
36586;DHT22;22591;48.314;11.562;2024-01-30T04:54:23;-2.20;99.90
36586;DHT22;22591;48.314;11.562;2024-01-30T04:56:48;-2.20;99.90
36586;DHT22;22591;48.314;11.562;2024-01-30T04:59:14;-2.20;99.90
36586;DHT22;22591;48.314;11.562;2024-01-30T05:01:39;-2.20;99.90
36586;DHT22;22591;48.314;11.562;2024-01-30T05:04:07;-2.30;99.90
36586;DHT22;22591;48.314;11.562;2024-01-30T05:06:33;-2.30;99.90
36586;DHT22;22591;48.314;11.562;2024-01-30T05:08:58;-2.30;99.90
36586;DHT22;22591;48.314;11.562;2024-01-30T05:11:24;-2.20;99.90
36586;DHT22;22591;48.314;11.562;2024-01-30T05:13:49;-2.20;99.90
36586;DHT22;22591;48.314;11.562;2024-01-30T05:16:15;-2.20;99.90
36586;DHT22;22591;48.314;11.562;2024-01-30T05:18:40;-2.20;99.90
36586;DHT22;22591;48.314;11.562;2024-01-30T05:21:06;-2.30;99.90
36586;DHT22;22591;48.314;11.562;2024-01-30T05:23:31;-2.20;99.90
36586;DHT22;22591;48.314;11.562;2024-01-30T05:25:57;-2.20;99.90
36586;DHT22;22591;48.314;11.562;2024-01-30T05:28:23;-2.30;99.90
36586;DHT22;22591;48.314;11.562;2024-01-30T05:30:48;-2.30;99.90
36586;DHT22;22591;48.314;11.562;2024-01-30T05:33:14;-2.30;99.90
36586;DHT22;22591;48.314;11.562;2024-01-30T05:35:39;-2.30;99.90
36586;DHT22;22591;48.314;11.562;2024-01-30T05:38:05;-2.30;99.90
36586;DHT22;22591;48.314;11.562;2024-01-30T05:40:30;-2.30;99.90
36586;DHT22;22591;48.314;11.562;2024-01-30T05:42:57;-2.20;99.90
36586;DHT22;22591;48.314;11.562;2024-01-30T05:45:26;-2.20;99.90
36586;DHT22;22591;48.314;11.562;2024-01-30T05:47:52;-2.20;99.90
36586;DHT22;22591;48.314;11.562;2024-01-30T05:50:18;-2.30;99.90
36586;DHT22;22591;48.314;11.562;2024-01-30T05:52:43;-2.30;99.90
36586;DHT22;22591;48.314;11.562;2024-01-30T05:55:09;-2.30;99.90
36586;DHT22;22591;48.314;11.562;2024-01-30T05:57:35;-2.20;99.90
36586;DHT22;22591;48.314;11.562;2024-01-30T06:00:00;-2.20;99.90
36586;DHT22;22591;48.314;11.562;2024-01-30T06:02:26;-2.20;99.90
36586;DHT22;22591;48.314;11.562;2024-01-30T06:04:51;-2.30;99.90
36586;DHT22;22591;48.314;11.562;2024-01-30T06:07:17;-2.30;99.90
36586;DHT22;22591;48.314;11.562;2024-01-30T06:09:43;-2.30;99.90
36586;DHT22;22591;48.314;11.562;2024-01-30T06:12:08;-2.20;99.90
36586;DHT22;22591;48.314;11.562;2024-01-30T06:14:34;-2.20;99.90
36586;DHT22;22591;48.314;11.562;2024-01-30T06:17:00;-2.30;99.90
36586;DHT22;22591;48.314;11.562;2024-01-30T06:19:25;-2.10;99.90
36586;DHT22;22591;48.314;11.562;2024-01-30T06:21:51;-2.10;99.90
36586;DHT22;22591;48.314;11.562;2024-01-30T06:24:17;-2.20;99.90
36586;DHT22;22591;48.314;11.562;2024-01-30T06:26:42;-2.30;99.90
36586;DHT22;22591;48.314;11.562;2024-01-30T06:29:08;-2.20;99.90
36586;DHT22;22591;48.314;11.562;2024-01-30T06:31:39;-2.10;99.90
36586;DHT22;22591;48.314;11.562;2024-01-30T06:34:05;-2.20;99.90
36586;DHT22;22591;48.314;11.562;2024-01-30T06:36:31;-2.20;99.90
36586;DHT22;22591;48.314;11.562;2024-01-30T06:38:56;-2.20;99.90
36586;DHT22;22591;48.314;11.562;2024-01-30T06:41:22;-2.30;99.90
36586;DHT22;22591;48.314;11.562;2024-01-30T06:43:47;-2.30;99.90
36586;DHT22;22591;48.314;11.562;2024-01-30T06:46:13;-2.30;99.90
36586;DHT22;22591;48.314;11.562;2024-01-30T06:48:39;-2.30;99.90
36586;DHT22;22591;48.314;11.562;2024-01-30T06:51:05;-2.30;99.90
36586;DHT22;22591;48.314;11.562;2024-01-30T06:53:31;-2.40;99.90
36586;DHT22;22591;48.314;11.562;2024-01-30T06:55:57;-2.30;99.90
36586;DHT22;22591;48.314;11.562;2024-01-30T06:58:22;-2.10;99.90
36586;DHT22;22591;48.314;11.562;2024-01-30T07:00:48;-2.10;99.90
36586;DHT22;22591;48.314;11.562;2024-01-30T07:03:13;-2.20;99.90
36586;DHT22;22591;48.314;11.562;2024-01-30T07:05:39;-2.20;99.90
36586;DHT22;22591;48.314;11.562;2024-01-30T07:08:05;-2.10;99.90
36586;DHT22;22591;48.314;11.562;2024-01-30T07:10:30;-2.10;99.90
36586;DHT22;22591;48.314;11.562;2024-01-30T07:12:56;-2.10;99.90
36586;DHT22;22591;48.314;11.562;2024-01-30T07:15:22;-2.10;99.90
36586;DHT22;22591;48.314;11.562;2024-01-30T07:17:48;-2.00;99.90
36586;DHT22;22591;48.314;11.562;2024-01-30T07:20:13;-2.00;99.90
36586;DHT22;22591;48.314;11.562;2024-01-30T07:22:40;-1.90;99.90
36586;DHT22;22591;48.314;11.562;2024-01-30T07:25:06;-1.90;99.90
36586;DHT22;22591;48.314;11.562;2024-01-30T07:27:32;-1.90;99.90
36586;DHT22;22591;48.314;11.562;2024-01-30T07:29:58;-1.70;99.90
36586;DHT22;22591;48.314;11.562;2024-01-30T07:32:23;-1.70;99.90
36586;DHT22;22591;48.314;11.562;2024-01-30T07:34:49;-1.60;99.90
36586;DHT22;22591;48.314;11.562;2024-01-30T07:37:14;-1.50;99.90
36586;DHT22;22591;48.314;11.562;2024-01-30T07:39:41;-1.50;99.90
36586;DHT22;22591;48.314;11.562;2024-01-30T07:42:07;-1.30;99.90
36586;DHT22;22591;48.314;11.562;2024-01-30T07:44:34;-1.30;99.90
36586;DHT22;22591;48.314;11.562;2024-01-30T07:46:59;-1.20;99.90
36586;DHT22;22591;48.314;11.562;2024-01-30T07:49:25;-1.20;99.90
36586;DHT22;22591;48.314;11.562;2024-01-30T07:51:50;-1.10;99.90
36586;DHT22;22591;48.314;11.562;2024-01-30T07:54:16;-1.00;99.90
36586;DHT22;22591;48.314;11.562;2024-01-30T07:56:41;-1.00;99.90
36586;DHT22;22591;48.314;11.562;2024-01-30T07:59:10;-0.90;99.90
36586;DHT22;22591;48.314;11.562;2024-01-30T08:01:37;-0.80;99.90
36586;DHT22;22591;48.314;11.562;2024-01-30T08:04:02;-0.70;99.90
36586;DHT22;22591;48.314;11.562;2024-01-30T08:06:28;-0.60;99.90
36586;DHT22;22591;48.314;11.562;2024-01-30T08:08:53;-0.60;99.90
36586;DHT22;22591;48.314;11.562;2024-01-30T08:11:22;-0.50;99.90
36586;DHT22;22591;48.314;11.562;2024-01-30T08:13:55;-0.40;99.90
36586;DHT22;22591;48.314;11.562;2024-01-30T08:16:20;-0.30;99.90
36586;DHT22;22591;48.314;11.562;2024-01-30T08:18:46;-0.20;99.90
36586;DHT22;22591;48.314;11.562;2024-01-30T08:21:11;-0.20;99.90
36586;DHT22;22591;48.314;11.562;2024-01-30T08:23:39;-0.10;99.90
36586;DHT22;22591;48.314;11.562;2024-01-30T08:26:05;-0.10;99.90
36586;DHT22;22591;48.314;11.562;2024-01-30T08:28:31;0.00;99.90
36586;DHT22;22591;48.314;11.562;2024-01-30T08:30:56;0.10;99.90
36586;DHT22;22591;48.314;11.562;2024-01-30T08:33:22;0.30;99.90
36586;DHT22;22591;48.314;11.562;2024-01-30T08:35:48;0.50;99.90
36586;DHT22;22591;48.314;11.562;2024-01-30T08:38:13;0.60;99.90
36586;DHT22;22591;48.314;11.562;2024-01-30T08:40:39;0.80;99.90
36586;DHT22;22591;48.314;11.562;2024-01-30T08:43:04;0.80;99.90
36586;DHT22;22591;48.314;11.562;2024-01-30T08:45:30;1.00;99.90
36586;DHT22;22591;48.314;11.562;2024-01-30T08:47:56;1.20;99.90
36586;DHT22;22591;48.314;11.562;2024-01-30T08:50:22;1.40;99.90
36586;DHT22;22591;48.314;11.562;2024-01-30T08:52:47;1.50;99.90
36586;DHT22;22591;48.314;11.562;2024-01-30T08:55:13;1.50;99.90
36586;DHT22;22591;48.314;11.562;2024-01-30T08:57:39;1.60;99.90
36586;DHT22;22591;48.314;11.562;2024-01-30T09:00:05;1.60;99.90
36586;DHT22;22591;48.314;11.562;2024-01-30T09:02:34;1.80;99.90
36586;DHT22;22591;48.314;11.562;2024-01-30T09:04:59;2.00;99.90
36586;DHT22;22591;48.314;11.562;2024-01-30T09:07:25;2.10;99.90
36586;DHT22;22591;48.314;11.562;2024-01-30T09:09:51;2.20;99.90
36586;DHT22;22591;48.314;11.562;2024-01-30T09:12:16;2.30;99.90
36586;DHT22;22591;48.314;11.562;2024-01-30T09:14:42;2.50;99.90
36586;DHT22;22591;48.314;11.562;2024-01-30T09:17:07;2.70;99.90
36586;DHT22;22591;48.314;11.562;2024-01-30T09:19:33;2.80;99.90
36586;DHT22;22591;48.314;11.562;2024-01-30T09:21:59;2.80;99.90
36586;DHT22;22591;48.314;11.562;2024-01-30T09:24:26;2.90;99.90
36586;DHT22;22591;48.314;11.562;2024-01-30T09:26:52;3.00;99.90
36586;DHT22;22591;48.314;11.562;2024-01-30T09:29:17;2.90;99.90
36586;DHT22;22591;48.314;11.562;2024-01-30T09:31:44;3.00;99.90
36586;DHT22;22591;48.314;11.562;2024-01-30T09:34:10;3.10;99.90
36586;DHT22;22591;48.314;11.562;2024-01-30T09:36:35;3.10;99.90
36586;DHT22;22591;48.314;11.562;2024-01-30T09:39:01;3.20;99.90
36586;DHT22;22591;48.314;11.562;2024-01-30T09:41:27;3.20;99.90
36586;DHT22;22591;48.314;11.562;2024-01-30T09:43:54;3.30;99.90
36586;DHT22;22591;48.314;11.562;2024-01-30T09:46:25;3.40;99.90
36586;DHT22;22591;48.314;11.562;2024-01-30T09:48:53;3.50;99.90
36586;DHT22;22591;48.314;11.562;2024-01-30T09:51:21;3.50;99.90
36586;DHT22;22591;48.314;11.562;2024-01-30T09:53:47;3.60;99.90
36586;DHT22;22591;48.314;11.562;2024-01-30T09:56:14;3.70;99.90
36586;DHT22;22591;48.314;11.562;2024-01-30T09:58:40;3.80;99.90
36586;DHT22;22591;48.314;11.562;2024-01-30T10:01:06;3.90;99.90
36586;DHT22;22591;48.314;11.562;2024-01-30T10:03:31;3.70;99.90
36586;DHT22;22591;48.314;11.562;2024-01-30T10:05:57;3.60;99.90
36586;DHT22;22591;48.314;11.562;2024-01-30T10:08:23;3.70;99.90
36586;DHT22;22591;48.314;11.562;2024-01-30T10:10:49;3.80;99.90
36586;DHT22;22591;48.314;11.562;2024-01-30T10:13:18;3.90;99.90
36586;DHT22;22591;48.314;11.562;2024-01-30T10:15:44;3.80;99.90
36586;DHT22;22591;48.314;11.562;2024-01-30T10:18:10;3.90;99.90
36586;DHT22;22591;48.314;11.562;2024-01-30T10:20:36;4.20;99.90
36586;DHT22;22591;48.314;11.562;2024-01-30T10:23:02;4.40;99.90
36586;DHT22;22591;48.314;11.562;2024-01-30T10:25:28;4.20;99.90
36586;DHT22;22591;48.314;11.562;2024-01-30T10:27:54;4.40;99.90
36586;DHT22;22591;48.314;11.562;2024-01-30T10:30:21;4.50;99.90
36586;DHT22;22591;48.314;11.562;2024-01-30T10:32:47;4.60;99.90
36586;DHT22;22591;48.314;11.562;2024-01-30T10:35:12;4.80;99.90
36586;DHT22;22591;48.314;11.562;2024-01-30T10:37:38;4.80;99.90
36586;DHT22;22591;48.314;11.562;2024-01-30T10:40:04;5.10;99.90
36586;DHT22;22591;48.314;11.562;2024-01-30T10:42:32;5.30;99.90
36586;DHT22;22591;48.314;11.562;2024-01-30T10:45:14;5.50;99.90
36586;DHT22;22591;48.314;11.562;2024-01-30T10:50:13;5.50;99.90
36586;DHT22;22591;48.314;11.562;2024-01-30T10:52:42;5.70;99.90
36586;DHT22;22591;48.314;11.562;2024-01-30T10:55:08;5.70;99.90
36586;DHT22;22591;48.314;11.562;2024-01-30T10:57:37;5.80;99.90
36586;DHT22;22591;48.314;11.562;2024-01-30T11:00:10;5.90;99.90
36586;DHT22;22591;48.314;11.562;2024-01-30T11:02:39;6.10;99.90
36586;DHT22;22591;48.314;11.562;2024-01-30T11:05:05;6.10;99.90
36586;DHT22;22591;48.314;11.562;2024-01-30T11:07:31;6.30;99.90
36586;DHT22;22591;48.314;11.562;2024-01-30T11:12:29;6.30;99.90
36586;DHT22;22591;48.314;11.562;2024-01-30T11:15:06;6.50;99.90
36586;DHT22;22591;48.314;11.562;2024-01-30T11:17:50;6.60;99.90
36586;DHT22;22591;48.314;11.562;2024-01-30T11:22:46;6.90;99.90
36586;DHT22;22591;48.314;11.562;2024-01-30T11:25:14;7.00;99.90
36586;DHT22;22591;48.314;11.562;2024-01-30T11:27:42;7.00;99.90
36586;DHT22;22591;48.314;11.562;2024-01-30T11:30:08;7.20;99.90
36586;DHT22;22591;48.314;11.562;2024-01-30T11:32:34;7.30;99.90
36586;DHT22;22591;48.314;11.562;2024-01-30T11:34:59;7.30;99.90
36586;DHT22;22591;48.314;11.562;2024-01-30T11:37:25;7.40;99.90
36586;DHT22;22591;48.314;11.562;2024-01-30T11:39:54;7.40;99.90
36586;DHT22;22591;48.314;11.562;2024-01-30T11:42:23;7.40;99.90
36586;DHT22;22591;48.314;11.562;2024-01-30T11:44:50;7.60;99.90
36586;DHT22;22591;48.314;11.562;2024-01-30T11:47:16;7.90;99.90
36586;DHT22;22591;48.314;11.562;2024-01-30T11:49:43;8.00;97.80
36586;DHT22;22591;48.314;11.562;2024-01-30T11:52:08;8.20;96.80
36586;DHT22;22591;48.314;11.562;2024-01-30T11:54:34;8.40;94.70
36586;DHT22;22591;48.314;11.562;2024-01-30T11:57:00;8.30;93.60
36586;DHT22;22591;48.314;11.562;2024-01-30T11:59:25;8.40;91.90
36586;DHT22;22591;48.314;11.562;2024-01-30T12:01:52;8.50;96.10
36586;DHT22;22591;48.314;11.562;2024-01-30T12:04:17;8.30;97.00
36586;DHT22;22591;48.314;11.562;2024-01-30T12:06:43;8.20;97.80
36586;DHT22;22591;48.314;11.562;2024-01-30T12:09:09;8.40;95.70
36586;DHT22;22591;48.314;11.562;2024-01-30T12:11:47;8.60;94.70
36586;DHT22;22591;48.314;11.562;2024-01-30T12:14:14;8.50;95.90
36586;DHT22;22591;48.314;11.562;2024-01-30T12:16:40;8.60;94.60
36586;DHT22;22591;48.314;11.562;2024-01-30T12:19:07;8.80;92.10
36586;DHT22;22591;48.314;11.562;2024-01-30T12:21:34;9.00;89.90
36586;DHT22;22591;48.314;11.562;2024-01-30T12:24:00;9.10;86.40
36586;DHT22;22591;48.314;11.562;2024-01-30T12:26:26;9.30;85.90
36586;DHT22;22591;48.314;11.562;2024-01-30T12:28:55;9.40;86.10
36586;DHT22;22591;48.314;11.562;2024-01-30T12:31:32;9.40;85.30
36586;DHT22;22591;48.314;11.562;2024-01-30T12:34:00;9.50;83.80
36586;DHT22;22591;48.314;11.562;2024-01-30T12:36:26;9.70;85.80
36586;DHT22;22591;48.314;11.562;2024-01-30T12:38:51;9.80;83.20
36586;DHT22;22591;48.314;11.562;2024-01-30T12:41:17;9.60;91.00
36586;DHT22;22591;48.314;11.562;2024-01-30T12:43:43;9.30;91.40
36586;DHT22;22591;48.314;11.562;2024-01-30T12:46:09;9.40;93.30
36586;DHT22;22591;48.314;11.562;2024-01-30T12:48:35;9.50;91.70
36586;DHT22;22591;48.314;11.562;2024-01-30T12:51:00;9.60;91.40
36586;DHT22;22591;48.314;11.562;2024-01-30T12:53:26;9.60;91.10
36586;DHT22;22591;48.314;11.562;2024-01-30T12:55:52;9.40;91.90
36586;DHT22;22591;48.314;11.562;2024-01-30T12:58:19;9.40;91.40
36586;DHT22;22591;48.314;11.562;2024-01-30T13:00:45;9.40;91.30
36586;DHT22;22591;48.314;11.562;2024-01-30T13:03:11;9.40;91.20
36586;DHT22;22591;48.314;11.562;2024-01-30T13:05:37;9.60;90.70
36586;DHT22;22591;48.314;11.562;2024-01-30T13:08:02;9.80;89.60
36586;DHT22;22591;48.314;11.562;2024-01-30T13:10:28;9.80;87.30
36586;DHT22;22591;48.314;11.562;2024-01-30T13:12:54;9.80;86.70
36586;DHT22;22591;48.314;11.562;2024-01-30T13:15:19;9.80;87.50
36586;DHT22;22591;48.314;11.562;2024-01-30T13:17:45;9.90;87.10
36586;DHT22;22591;48.314;11.562;2024-01-30T13:20:13;10.10;86.40
36586;DHT22;22591;48.314;11.562;2024-01-30T13:22:43;10.20;86.10
36586;DHT22;22591;48.314;11.562;2024-01-30T13:25:08;10.20;84.40
36586;DHT22;22591;48.314;11.562;2024-01-30T13:27:34;10.00;84.30
36586;DHT22;22591;48.314;11.562;2024-01-30T13:30:00;10.00;85.30
36586;DHT22;22591;48.314;11.562;2024-01-30T13:32:25;10.00;82.90
36586;DHT22;22591;48.314;11.562;2024-01-30T13:34:51;10.20;82.70
36586;DHT22;22591;48.314;11.562;2024-01-30T13:37:17;10.20;83.10
36586;DHT22;22591;48.314;11.562;2024-01-30T13:39:42;10.20;82.10
36586;DHT22;22591;48.314;11.562;2024-01-30T13:42:08;10.20;82.40
36586;DHT22;22591;48.314;11.562;2024-01-30T13:44:35;10.20;82.30
36586;DHT22;22591;48.314;11.562;2024-01-30T13:47:00;10.20;83.60
36586;DHT22;22591;48.314;11.562;2024-01-30T13:49:26;10.00;83.30
36586;DHT22;22591;48.314;11.562;2024-01-30T13:51:52;10.00;84.80
36586;DHT22;22591;48.314;11.562;2024-01-30T13:54:17;10.00;84.10
36586;DHT22;22591;48.314;11.562;2024-01-30T13:56:43;10.00;84.90
36586;DHT22;22591;48.314;11.562;2024-01-30T13:59:09;10.00;85.00
36586;DHT22;22591;48.314;11.562;2024-01-30T14:01:34;10.10;85.20
36586;DHT22;22591;48.314;11.562;2024-01-30T14:04:00;9.90;86.10
36586;DHT22;22591;48.314;11.562;2024-01-30T14:06:25;9.80;90.00
36586;DHT22;22591;48.314;11.562;2024-01-30T14:08:51;9.70;90.40
36586;DHT22;22591;48.314;11.562;2024-01-30T14:11:16;9.60;90.80
36586;DHT22;22591;48.314;11.562;2024-01-30T14:13:42;9.60;90.70
36586;DHT22;22591;48.314;11.562;2024-01-30T14:16:07;9.40;90.80
36586;DHT22;22591;48.314;11.562;2024-01-30T14:18:33;9.40;89.00
36586;DHT22;22591;48.314;11.562;2024-01-30T14:20:58;9.40;90.00
36586;DHT22;22591;48.314;11.562;2024-01-30T14:23:24;9.30;90.40
36586;DHT22;22591;48.314;11.562;2024-01-30T14:25:49;9.20;91.70
36586;DHT22;22591;48.314;11.562;2024-01-30T14:28:17;9.20;92.40
36586;DHT22;22591;48.314;11.562;2024-01-30T14:30:42;9.20;90.70
36586;DHT22;22591;48.314;11.562;2024-01-30T14:33:08;9.30;90.50
36586;DHT22;22591;48.314;11.562;2024-01-30T14:35:33;9.30;90.00
36586;DHT22;22591;48.314;11.562;2024-01-30T14:37:59;9.30;90.20
36586;DHT22;22591;48.314;11.562;2024-01-30T14:40:25;9.40;89.80
36586;DHT22;22591;48.314;11.562;2024-01-30T14:42:50;9.40;90.00
36586;DHT22;22591;48.314;11.562;2024-01-30T14:45:16;9.20;91.20
36586;DHT22;22591;48.314;11.562;2024-01-30T14:47:42;9.10;91.40
36586;DHT22;22591;48.314;11.562;2024-01-30T14:50:07;9.00;92.10
36586;DHT22;22591;48.314;11.562;2024-01-30T14:52:33;9.00;90.60
36586;DHT22;22591;48.314;11.562;2024-01-30T14:54:59;9.00;90.00
36586;DHT22;22591;48.314;11.562;2024-01-30T14:57:25;9.00;90.60
36586;DHT22;22591;48.314;11.562;2024-01-30T14:59:50;9.00;90.40
36586;DHT22;22591;48.314;11.562;2024-01-30T15:02:16;8.90;90.60
36586;DHT22;22591;48.314;11.562;2024-01-30T15:04:42;8.90;90.30
36586;DHT22;22591;48.314;11.562;2024-01-30T15:07:08;8.90;90.50
36586;DHT22;22591;48.314;11.562;2024-01-30T15:09:34;8.90;90.50
36586;DHT22;22591;48.314;11.562;2024-01-30T15:12:00;8.70;91.30
36586;DHT22;22591;48.314;11.562;2024-01-30T15:14:26;8.70;91.80
36586;DHT22;22591;48.314;11.562;2024-01-30T15:16:52;8.70;91.50
36586;DHT22;22591;48.314;11.562;2024-01-30T15:19:17;8.60;92.00
36586;DHT22;22591;48.314;11.562;2024-01-30T15:21:43;8.60;91.40
36586;DHT22;22591;48.314;11.562;2024-01-30T15:24:08;8.50;92.40
36586;DHT22;22591;48.314;11.562;2024-01-30T15:26:34;8.60;91.70